createdAt,value
2018-04-27T00:02:12.500Z,6.37
2018-04-27T00:04:40.829Z,7.67
2018-04-27T00:07:09.138Z,7.60
2018-04-27T00:09:37.468Z,6.50
2018-04-27T00:12:05.963Z,7.47
2018-04-27T00:14:34.296Z,7.43
2018-04-27T00:17:02.653Z,7.67
2018-04-27T00:19:30.972Z,8.03
2018-04-27T00:21:59.284Z,7.83
2018-04-27T00:24:27.626Z,8.23
2018-04-27T00:26:55.941Z,7.10
2018-04-27T00:29:24.302Z,7.63
2018-04-27T00:31:52.612Z,9.27
2018-04-27T00:34:20.975Z,8.43
2018-04-27T00:36:49.320Z,8.50
2018-04-27T00:39:17.623Z,8.67
2018-04-27T00:41:46.045Z,7.73
2018-04-27T00:44:14.434Z,8.50
2018-04-27T00:46:42.758Z,8.13
2018-04-27T00:49:11.098Z,8.43
2018-04-27T00:51:39.426Z,8.63
2018-04-27T00:54:07.754Z,9.10
2018-04-27T00:56:36.100Z,8.20
2018-04-27T00:59:04.434Z,8.37
2018-04-27T01:01:32.801Z,8.80
2018-04-27T01:04:01.171Z,7.87
2018-04-27T01:06:29.480Z,8.20
2018-04-27T01:08:57.797Z,7.57
2018-04-27T01:11:26.109Z,7.50
2018-04-27T01:13:54.454Z,8.00
2018-04-27T01:16:22.762Z,7.27
2018-04-27T01:18:51.113Z,8.30
2018-04-27T01:21:19.449Z,7.40
2018-04-27T01:23:47.799Z,7.70
2018-04-27T01:26:16.206Z,7.37
2018-04-27T01:28:44.519Z,7.57
2018-04-27T01:31:12.857Z,8.50
2018-04-27T01:33:41.238Z,7.33
2018-04-27T01:36:09.543Z,9.57
2018-04-27T01:38:37.922Z,7.90
2018-04-27T01:41:06.245Z,7.67
2018-04-27T01:43:34.570Z,8.13
2018-04-27T01:46:02.925Z,7.43
2018-04-27T01:48:31.222Z,7.50
2018-04-27T01:50:59.548Z,7.90
2018-04-27T01:53:27.947Z,8.10
2018-04-27T01:55:56.250Z,7.70
2018-04-27T01:58:24.570Z,8.30
2018-04-27T02:00:52.904Z,8.13
2018-04-27T02:03:21.247Z,8.30
2018-04-27T02:05:49.559Z,7.50
2018-04-27T02:08:17.983Z,7.50
2018-04-27T02:10:47.040Z,8.27
2018-04-27T02:13:15.384Z,7.63
2018-04-27T02:15:45.635Z,7.93
2018-04-27T02:18:13.987Z,9.00
2018-04-27T02:20:42.348Z,7.53
2018-04-27T02:23:10.680Z,7.87
2018-04-27T02:25:39.025Z,7.07
2018-04-27T02:28:07.380Z,8.23
2018-04-27T02:30:35.694Z,8.17
2018-04-27T02:33:04.033Z,8.10
2018-04-27T02:35:32.395Z,8.40
2018-04-27T02:38:00.713Z,9.33
2018-04-27T02:40:29.066Z,8.07
2018-04-27T02:42:57.384Z,8.03
2018-04-27T02:45:25.761Z,8.20
2018-04-27T02:47:54.128Z,7.37
2018-04-27T02:50:22.497Z,7.73
2018-04-27T02:52:50.828Z,7.97
2018-04-27T02:55:19.183Z,9.17
2018-04-27T02:57:47.517Z,8.10
2018-04-27T03:00:15.923Z,9.13
2018-04-27T03:02:44.233Z,7.63
2018-04-27T03:05:12.561Z,7.77
2018-04-27T03:07:40.929Z,8.60
2018-04-27T03:10:09.251Z,8.00
2018-04-27T03:12:37.563Z,9.33
2018-04-27T03:15:05.917Z,8.57
2018-04-27T03:17:34.278Z,8.53
2018-04-27T03:20:02.596Z,7.63
2018-04-27T03:22:30.943Z,8.13
2018-04-27T03:24:59.274Z,7.90
2018-04-27T03:27:27.608Z,7.87
2018-04-27T03:29:55.917Z,7.67
2018-04-27T03:32:24.242Z,8.43
2018-04-27T03:34:53.217Z,9.00
2018-04-27T03:37:21.968Z,8.87
2018-04-27T03:39:50.309Z,7.97
2018-04-27T03:42:18.627Z,8.23
2018-04-27T03:44:46.972Z,8.90
2018-04-27T03:47:15.315Z,7.50
2018-04-27T03:49:43.667Z,8.47
2018-04-27T03:52:11.983Z,7.20
2018-04-27T03:54:40.332Z,8.63
2018-04-27T03:57:08.660Z,7.60
2018-04-27T03:59:48.655Z,8.83
2018-04-27T04:02:28.795Z,8.27
2018-04-27T04:05:09.126Z,8.07
2018-04-27T04:07:37.464Z,9.07
2018-04-27T04:10:05.778Z,8.07
2018-04-27T04:12:34.137Z,8.93
2018-04-27T04:15:02.480Z,8.40
2018-04-27T04:17:30.770Z,8.07
2018-04-27T04:19:59.078Z,7.97
2018-04-27T04:22:27.451Z,8.67
2018-04-27T04:24:55.784Z,7.83
2018-04-27T04:27:24.140Z,8.27
2018-04-27T04:29:52.449Z,8.20
2018-04-27T04:32:21.896Z,7.90
2018-04-27T04:34:50.250Z,7.67
2018-04-27T04:37:18.592Z,7.23
2018-04-27T04:39:46.940Z,8.30
2018-04-27T04:42:16.884Z,7.43
2018-04-27T04:44:45.412Z,7.57
2018-04-27T04:47:13.728Z,8.27
2018-04-27T04:49:42.057Z,8.57
2018-04-27T04:52:10.407Z,7.80
2018-04-27T04:54:38.714Z,7.17
2018-04-27T04:57:07.214Z,8.30
2018-04-27T04:59:35.553Z,7.33
2018-04-27T05:02:04.209Z,7.90
2018-04-27T05:04:32.516Z,7.27
2018-04-27T05:07:00.926Z,7.10
2018-04-27T05:09:29.262Z,6.43
2018-04-27T05:11:57.611Z,7.50
2018-04-27T05:14:25.996Z,6.80
2018-04-27T05:16:54.328Z,7.50
2018-04-27T05:19:22.647Z,7.77
2018-04-27T05:21:51.000Z,7.80
2018-04-27T05:24:19.442Z,6.73
2018-04-27T05:26:47.857Z,7.27
2018-04-27T05:29:16.182Z,6.87
2018-04-27T05:31:44.534Z,6.63
2018-04-27T05:34:12.874Z,7.93
2018-04-27T05:36:41.313Z,7.60
2018-04-27T05:39:09.633Z,7.90
2018-04-27T05:41:37.988Z,7.30
2018-04-27T05:44:06.330Z,6.27
2018-04-27T05:46:34.763Z,7.60
2018-04-27T05:49:03.182Z,6.90
2018-04-27T05:51:31.450Z,7.80
2018-04-27T05:53:59.751Z,6.50
2018-04-27T05:56:28.090Z,6.80
2018-04-27T05:58:56.453Z,7.27
2018-04-27T06:01:24.769Z,7.20
2018-04-27T06:04:04.803Z,7.27
2018-04-27T06:06:33.116Z,6.73
2018-04-27T06:09:01.476Z,6.47
2018-04-27T06:11:29.866Z,6.97
2018-04-27T06:13:58.175Z,6.47
2018-04-27T06:16:26.527Z,6.80
2018-04-27T06:18:54.864Z,5.83
2018-04-27T06:21:23.177Z,6.57
2018-04-27T06:23:51.541Z,6.87
2018-04-27T06:26:19.857Z,7.20
2018-04-27T06:28:49.047Z,6.87
2018-04-27T06:31:17.424Z,7.63
2018-04-27T06:33:45.735Z,7.27
2018-04-27T06:36:14.095Z,7.57
2018-04-27T06:38:42.412Z,6.53
2018-04-27T06:41:10.741Z,6.43
2018-04-27T06:43:39.102Z,6.20
2018-04-27T06:46:07.422Z,6.90
2018-04-27T06:48:35.748Z,5.70
2018-04-27T06:51:04.081Z,6.30
2018-04-27T06:53:35.943Z,5.80
2018-04-27T06:56:04.295Z,5.90
2018-04-27T06:58:32.629Z,6.63
2018-04-27T07:01:07.294Z,6.20
2018-04-27T07:03:35.651Z,6.50
2018-04-27T07:06:03.961Z,5.80
2018-04-27T07:08:32.327Z,5.17
2018-04-27T07:11:00.650Z,6.10
2018-04-27T07:13:28.961Z,5.77
2018-04-27T07:15:57.315Z,5.10
2018-04-27T07:18:25.617Z,4.80
2018-04-27T07:20:53.940Z,4.50
2018-04-27T07:23:22.277Z,4.87
2018-04-27T07:25:50.669Z,5.57
2018-04-27T07:28:18.971Z,5.67
2018-04-27T07:30:47.289Z,4.57
2018-04-27T07:33:15.609Z,5.90
2018-04-27T07:35:43.939Z,5.80
2018-04-27T07:38:12.267Z,5.87
2018-04-27T07:40:40.608Z,5.33
2018-04-27T07:43:08.936Z,5.23
2018-04-27T07:45:38.281Z,5.10
2018-04-27T07:48:06.602Z,5.13
2018-04-27T07:50:34.954Z,5.70
2018-04-27T07:53:03.282Z,5.83
2018-04-27T07:55:31.610Z,5.20
2018-04-27T07:57:59.935Z,5.03
2018-04-27T08:00:28.267Z,4.83
2018-04-27T08:02:56.670Z,5.63
2018-04-27T08:05:25.105Z,5.53
2018-04-27T08:07:53.444Z,4.77
2018-04-27T08:10:21.763Z,4.23
2018-04-27T08:12:50.097Z,4.50
2018-04-27T08:15:18.431Z,4.57
2018-04-27T08:17:46.755Z,4.37
2018-04-27T08:20:24.900Z,4.37
2018-04-27T08:22:53.294Z,3.97
2018-04-27T08:25:21.662Z,4.60
2018-04-27T08:27:53.344Z,5.70
2018-04-27T08:30:21.720Z,4.57
2018-04-27T08:32:50.094Z,4.43
2018-04-27T08:35:18.406Z,4.40
2018-04-27T08:37:46.977Z,3.73
2018-04-27T08:40:15.306Z,4.20
2018-04-27T08:42:43.645Z,3.50
2018-04-27T08:45:11.973Z,2.97
2018-04-27T08:47:40.305Z,3.17
2018-04-27T08:50:08.739Z,3.17
2018-04-27T08:52:37.075Z,4.07
2018-04-27T08:55:05.413Z,3.40
2018-04-27T08:57:33.736Z,3.53
2018-04-27T09:00:02.082Z,2.70
2018-04-27T09:02:30.434Z,3.40
2018-04-27T09:04:58.753Z,3.33
2018-04-27T09:07:27.082Z,3.10
2018-04-27T09:09:55.389Z,3.10
2018-04-27T09:12:23.720Z,3.67
2018-04-27T09:14:52.039Z,3.57
2018-04-27T09:17:20.384Z,3.30
2018-04-27T09:19:48.715Z,3.63
2018-04-27T09:22:17.071Z,3.10
2018-04-27T09:24:45.390Z,3.00
2018-04-27T09:27:13.724Z,2.83
2018-04-27T09:29:42.064Z,3.20
2018-04-27T09:32:10.402Z,3.70
2018-04-27T09:34:38.716Z,3.07
2018-04-27T09:37:07.048Z,3.47
2018-04-27T09:39:35.387Z,2.73
2018-04-27T09:42:03.712Z,2.90
2018-04-27T09:44:32.021Z,3.67
2018-04-27T09:47:00.380Z,2.93
2018-04-27T09:49:28.793Z,2.50
2018-04-27T09:51:57.120Z,3.83
2018-04-27T09:54:25.433Z,2.70
2018-04-27T09:56:53.759Z,3.63
2018-04-27T09:59:22.092Z,2.97
2018-04-27T10:01:50.404Z,3.17
2018-04-27T10:04:18.738Z,3.20
2018-04-27T10:06:47.051Z,2.57
2018-04-27T10:09:15.385Z,2.80
2018-04-27T10:11:43.707Z,3.00
2018-04-27T10:14:12.060Z,2.60
2018-04-27T10:16:40.386Z,2.43
2018-04-27T10:19:08.720Z,4.47
2018-04-27T10:21:37.056Z,2.40
2018-04-27T10:24:05.503Z,3.00
2018-04-27T10:26:36.178Z,3.20
2018-04-27T10:29:04.841Z,2.70
2018-04-27T10:31:33.166Z,3.67
2018-04-27T10:34:01.476Z,2.80
2018-04-27T10:36:29.839Z,2.00
2018-04-27T10:38:58.156Z,2.07
2018-04-27T10:41:26.488Z,2.83
2018-04-27T10:43:54.808Z,2.93
2018-04-27T10:46:23.136Z,2.37
2018-04-27T10:48:51.473Z,2.13
2018-04-27T10:51:19.837Z,2.60
2018-04-27T10:53:48.165Z,2.40
2018-04-27T10:56:16.478Z,2.33
2018-04-27T10:58:44.818Z,2.33
2018-04-27T11:01:13.141Z,2.53
2018-04-27T11:03:41.463Z,2.17
2018-04-27T11:06:09.773Z,2.47
2018-04-27T11:08:38.110Z,2.33
2018-04-27T11:11:10.412Z,2.43
2018-04-27T11:13:38.746Z,2.63
2018-04-27T11:16:07.061Z,2.47
2018-04-27T11:18:35.403Z,2.77
2018-04-27T11:21:03.713Z,1.97
2018-04-27T11:23:32.033Z,2.57
2018-04-27T11:26:00.359Z,2.57
2018-04-27T11:28:28.678Z,2.60
2018-04-27T11:30:56.986Z,2.33
2018-04-27T11:33:25.327Z,2.33
2018-04-27T11:35:53.629Z,1.97
2018-04-27T11:38:21.943Z,2.47
2018-04-27T11:40:50.299Z,3.03
2018-04-27T11:43:18.600Z,2.80
2018-04-27T11:45:46.915Z,3.47
2018-04-27T11:48:15.232Z,3.07
2018-04-27T11:50:43.575Z,2.90
2018-04-27T11:53:11.890Z,2.83
2018-04-27T11:55:40.225Z,2.53
2018-04-27T11:58:08.522Z,2.57
2018-04-27T12:00:36.935Z,2.90
2018-04-27T12:03:05.236Z,1.90
2018-04-27T12:05:33.571Z,2.33
2018-04-27T12:08:01.885Z,3.03
2018-04-27T12:10:30.342Z,2.20
2018-04-27T12:12:58.645Z,2.17
2018-04-27T12:15:27.100Z,2.87
2018-04-27T12:17:55.396Z,2.80
2018-04-27T12:20:23.749Z,2.80
2018-04-27T12:22:52.074Z,3.00
2018-04-27T12:25:20.375Z,2.50
2018-04-27T12:27:48.705Z,2.67
2018-04-27T12:30:17.011Z,2.83
2018-04-27T12:32:45.321Z,2.87
2018-04-27T12:35:13.626Z,1.93
2018-04-27T12:37:41.944Z,2.20
2018-04-27T12:40:10.255Z,2.03
2018-04-27T12:42:38.593Z,2.73
2018-04-27T12:45:06.982Z,2.70
2018-04-27T12:47:35.221Z,3.67
2018-04-27T12:50:03.536Z,2.70
2018-04-27T12:52:33.183Z,2.13
2018-04-27T12:55:01.507Z,2.70
2018-04-27T12:57:30.097Z,2.60
2018-04-27T12:59:58.753Z,3.00
2018-04-27T13:02:27.070Z,2.63
2018-04-27T13:04:55.420Z,2.77
2018-04-27T13:07:23.742Z,2.70
2018-04-27T13:09:52.055Z,2.37
2018-04-27T13:12:20.365Z,1.97
2018-04-27T13:14:48.683Z,2.20
2018-04-27T13:17:16.998Z,2.30
2018-04-27T13:19:45.320Z,2.60
2018-04-27T13:22:13.640Z,2.50
2018-04-27T13:24:41.958Z,2.00
2018-04-27T13:27:10.280Z,2.43
2018-04-27T13:29:38.616Z,3.03
2018-04-27T13:32:06.919Z,2.33
2018-04-27T13:34:35.351Z,3.10
2018-04-27T13:37:03.583Z,2.70
2018-04-27T13:39:31.910Z,2.30
2018-04-27T13:42:00.219Z,2.47
2018-04-27T13:44:28.516Z,2.97
2018-04-27T13:46:56.846Z,2.87
2018-04-27T13:49:25.157Z,3.20
2018-04-27T13:51:53.502Z,3.70
2018-04-27T13:54:21.823Z,3.10
2018-04-27T13:56:50.167Z,3.20
2018-04-27T13:59:18.507Z,3.10
2018-04-27T14:01:46.843Z,2.80
2018-04-27T14:04:15.158Z,3.03
2018-04-27T14:06:43.504Z,2.63
2018-04-27T14:09:11.809Z,3.03
2018-04-27T14:11:40.148Z,2.83
2018-04-27T14:14:08.450Z,3.00
2018-04-27T14:16:36.817Z,3.67
2018-04-27T14:19:05.140Z,2.80
2018-04-27T14:21:33.518Z,2.87
2018-04-27T14:24:03.723Z,2.73
2018-04-27T14:26:32.019Z,2.67
2018-04-27T14:29:00.381Z,2.90
2018-04-27T14:31:28.703Z,3.00
2018-04-27T14:33:57.088Z,2.70
2018-04-27T14:36:25.431Z,2.63
2018-04-27T14:38:53.937Z,2.40
2018-04-27T14:41:22.249Z,3.03
2018-04-27T14:43:50.646Z,3.10
2018-04-27T14:46:18.941Z,3.53
2018-04-27T14:48:47.270Z,4.33
2018-04-27T14:51:15.578Z,3.53
2018-04-27T14:53:43.940Z,3.30
2018-04-27T14:56:12.260Z,3.80
2018-04-27T14:58:40.601Z,3.03
2018-04-27T15:01:08.981Z,3.30
2018-04-27T15:03:37.309Z,3.43
2018-04-27T15:06:05.625Z,2.83
2018-04-27T15:08:33.946Z,3.10
2018-04-27T15:11:02.260Z,3.63
2018-04-27T15:13:30.569Z,3.60
2018-04-27T15:15:58.887Z,3.10
2018-04-27T15:18:35.267Z,3.07
2018-04-27T15:21:03.565Z,3.23
2018-04-27T15:23:31.889Z,2.73
2018-04-27T15:26:00.205Z,3.03
2018-04-27T15:28:28.519Z,3.37
2018-04-27T15:30:56.893Z,3.03
2018-04-27T15:33:25.202Z,3.43
2018-04-27T15:35:53.539Z,3.10
2018-04-27T15:38:21.852Z,2.87
2018-04-27T15:40:50.193Z,3.00
2018-04-27T15:43:18.716Z,3.17
2018-04-27T15:45:47.033Z,3.13
2018-04-27T15:48:15.362Z,2.53
2018-04-27T15:50:43.710Z,2.47
2018-04-27T15:53:12.048Z,2.50
2018-04-27T15:55:40.355Z,2.60
2018-04-27T15:58:08.714Z,2.93
2018-04-27T16:00:37.087Z,2.30
2018-04-27T16:03:06.223Z,2.63
2018-04-27T16:05:34.549Z,3.00
2018-04-27T16:08:02.902Z,2.50
2018-04-27T16:10:31.209Z,3.17
2018-04-27T16:16:02.164Z,2.80
2018-04-27T16:18:30.500Z,2.97
2018-04-27T16:20:59.949Z,2.70
2018-04-27T16:23:28.265Z,2.63
2018-04-27T16:25:56.626Z,2.73
2018-04-27T16:28:24.935Z,2.63
2018-04-27T16:30:53.300Z,2.47
2018-04-27T16:33:21.673Z,2.57
2018-04-27T16:35:50.168Z,2.40
2018-04-27T16:38:18.487Z,2.03
2018-04-27T16:40:46.814Z,2.20
2018-04-27T16:43:15.160Z,2.20
2018-04-27T16:45:43.490Z,1.73
2018-04-27T16:48:11.903Z,2.53
2018-04-27T16:50:40.286Z,3.50
2018-04-27T16:53:08.600Z,2.20
2018-04-27T16:55:36.933Z,2.10
2018-04-27T16:58:05.242Z,2.17
2018-04-27T17:00:33.619Z,1.97
2018-04-27T17:03:01.952Z,2.47
2018-04-27T17:05:30.291Z,2.53
2018-04-27T17:07:58.643Z,2.40
2018-04-27T17:10:26.953Z,2.10
2018-04-27T17:12:55.277Z,1.87
2018-04-27T17:15:23.598Z,1.87
2018-04-27T17:17:51.927Z,2.53
2018-04-27T17:20:20.256Z,2.43
2018-04-27T17:22:48.577Z,2.37
2018-04-27T17:25:16.886Z,1.87
2018-04-27T17:27:45.348Z,2.70
2018-04-27T17:30:13.706Z,2.33
2018-04-27T17:32:42.053Z,1.83
2018-04-27T17:35:10.405Z,2.43
2018-04-27T17:37:38.700Z,2.40
2018-04-27T17:40:07.105Z,2.30
2018-04-27T17:42:35.597Z,2.83
2018-04-27T17:45:04.457Z,2.20
2018-04-27T17:47:32.828Z,2.47
2018-04-27T17:50:01.137Z,2.73
2018-04-27T17:52:29.477Z,2.20
2018-04-27T17:54:57.797Z,2.23
2018-04-27T17:57:26.126Z,1.77
2018-04-27T17:59:54.852Z,1.90
2018-04-27T18:02:23.192Z,1.73
2018-04-27T18:04:51.503Z,1.87
2018-04-27T18:07:19.831Z,2.37
2018-04-27T18:09:48.153Z,2.20
2018-04-27T18:12:16.567Z,1.60
2018-04-27T18:14:44.849Z,2.10
2018-04-27T18:17:13.155Z,2.50
2018-04-27T18:19:41.486Z,2.67
2018-04-27T18:22:09.797Z,2.23
2018-04-27T18:24:38.133Z,1.90
2018-04-27T18:27:06.436Z,2.23
2018-04-27T18:29:34.770Z,2.23
2018-04-27T18:32:03.096Z,2.10
2018-04-27T18:34:31.517Z,2.03
2018-04-27T18:36:59.874Z,3.20
2018-04-27T18:39:28.196Z,2.07
2018-04-27T18:41:56.627Z,2.17
2018-04-27T18:44:24.918Z,1.93
2018-04-27T18:46:53.239Z,1.97
2018-04-27T18:49:21.558Z,2.00
2018-04-27T18:51:49.908Z,1.83
2018-04-27T18:54:18.209Z,1.80
2018-04-27T18:56:47.354Z,2.27
2018-04-27T18:59:15.728Z,2.10
2018-04-27T19:01:44.125Z,2.47
2018-04-27T19:04:12.482Z,2.17
2018-04-27T19:06:40.818Z,2.10
2018-04-27T19:09:09.171Z,2.27
2018-04-27T19:11:37.667Z,2.97
2018-04-27T19:14:06.110Z,2.83
2018-04-27T19:16:34.520Z,2.40
2018-04-27T19:19:02.842Z,2.00
2018-04-27T19:21:31.260Z,2.77
2018-04-27T19:24:00.046Z,2.33
2018-04-27T19:26:28.355Z,2.43
2018-04-27T19:28:56.663Z,2.37
2018-04-27T19:31:24.990Z,2.27
2018-04-27T19:33:53.320Z,2.10
2018-04-27T19:36:21.630Z,2.97
2018-04-27T19:38:49.959Z,2.00
2018-04-27T19:41:18.267Z,2.83
2018-04-27T19:43:46.686Z,2.60
2018-04-27T19:46:15.099Z,2.60
2018-04-27T19:48:43.573Z,3.63
2018-04-27T19:51:11.885Z,3.10
2018-04-27T19:53:40.192Z,3.83
2018-04-27T19:56:09.069Z,4.13
2018-04-27T19:58:37.378Z,2.93
2018-04-27T20:01:05.756Z,3.20
2018-04-27T20:03:34.255Z,3.60
2018-04-27T20:06:02.621Z,3.70
2018-04-27T20:08:39.482Z,4.57
2018-04-27T20:11:07.825Z,6.00
2018-04-27T20:13:39.569Z,5.17
2018-04-27T20:16:07.914Z,5.83
2018-04-27T20:18:36.353Z,4.83
2018-04-27T20:21:04.663Z,3.83
2018-04-27T20:23:35.882Z,3.73
2018-04-27T20:26:05.903Z,3.03
2018-04-27T20:28:35.164Z,3.20
2018-04-27T20:31:03.481Z,3.10
2018-04-27T20:33:31.865Z,2.97
2018-04-27T20:36:00.941Z,3.80
2018-04-27T20:38:32.953Z,3.00
2018-04-27T20:41:05.113Z,3.17
2018-04-27T20:43:33.447Z,3.23
2018-04-27T20:46:01.902Z,3.90
2018-04-27T20:48:30.763Z,3.60
2018-04-27T20:51:03.031Z,3.80
2018-04-27T20:53:32.149Z,3.70
2018-04-27T20:56:02.355Z,3.40
2018-04-27T20:58:30.687Z,3.73
2018-04-27T21:00:59.066Z,3.87
2018-04-27T21:03:27.386Z,3.97
2018-04-27T21:05:55.708Z,3.87
2018-04-27T21:08:24.022Z,3.30
2018-04-27T21:10:52.370Z,3.63
2018-04-27T21:13:20.701Z,3.93
2018-04-27T21:15:49.035Z,5.13
2018-04-27T21:18:20.125Z,4.07
2018-04-27T21:20:48.505Z,3.87
2018-04-27T21:23:16.801Z,3.53
2018-04-27T21:25:45.127Z,4.37
2018-04-27T21:28:21.878Z,3.27
2018-04-27T21:30:50.207Z,3.73
2018-04-27T21:33:18.574Z,4.07
2018-04-27T21:35:52.531Z,4.03
2018-04-27T21:41:47.636Z,4.50
2018-04-27T21:44:34.567Z,4.93
2018-04-27T21:50:18.711Z,4.00
2018-04-27T21:52:53.449Z,3.17
2018-04-27T21:55:21.815Z,3.83
2018-04-27T21:57:56.963Z,4.07
2018-04-27T22:00:26.733Z,4.00
2018-04-27T22:03:16.868Z,4.43
2018-04-27T22:09:01.697Z,4.17
2018-04-27T22:11:46.794Z,3.53
2018-04-27T22:17:13.398Z,4.43
2018-04-27T22:19:41.720Z,4.50
2018-04-27T22:22:10.039Z,4.40
2018-04-27T22:24:50.004Z,4.10
2018-04-27T22:27:18.332Z,5.10
2018-04-27T22:29:47.532Z,4.40
2018-04-27T22:32:31.500Z,4.27
2018-04-27T22:35:02.288Z,4.93
2018-04-27T22:37:33.085Z,4.70
2018-04-27T22:40:05.925Z,4.43
2018-04-27T22:42:37.776Z,4.97
2018-04-27T22:45:21.807Z,5.20
2018-04-27T22:48:07.047Z,4.87
2018-04-27T22:50:35.372Z,5.40
2018-04-27T22:53:11.244Z,4.50
2018-04-27T22:55:39.590Z,4.50
2018-04-27T22:58:08.874Z,3.93
2018-04-27T23:03:35.250Z,4.00
2018-04-27T23:06:05.015Z,4.30
2018-04-27T23:08:33.330Z,5.13
2018-04-27T23:14:09.221Z,6.33
2018-04-27T23:16:37.523Z,4.93
2018-04-27T23:19:07.621Z,5.50
2018-04-27T23:21:53.179Z,5.43
2018-04-27T23:24:21.462Z,4.73
2018-04-27T23:26:51.190Z,6.70
2018-04-27T23:29:19.472Z,5.83
2018-04-27T23:31:48.591Z,6.17
2018-04-27T23:34:24.510Z,6.00
2018-04-27T23:36:55.431Z,5.63
2018-04-27T23:39:23.727Z,6.57
2018-04-27T23:41:52.085Z,7.03
2018-04-27T23:44:20.386Z,7.83
2018-04-27T23:46:48.695Z,5.97
2018-04-27T23:49:17.029Z,6.73
2018-04-27T23:51:45.303Z,6.10
2018-04-27T23:54:14.417Z,6.37
2018-04-27T23:56:44.230Z,6.93
2018-04-27T23:59:12.527Z,6.57
